sensor_id;sensor_type;location;lat;lon;timestamp;P1;durP1;ratioP1;P2;durP2;ratioP2
17175;SDS011;8703;48.996;9.594;2023-09-07T00:01:52;3.33;;;2.42;;
17175;SDS011;8703;48.996;9.594;2023-09-07T00:04:20;5.00;;;2.65;;
17175;SDS011;8703;48.996;9.594;2023-09-07T00:06:48;4.37;;;2.60;;
17175;SDS011;8703;48.996;9.594;2023-09-07T00:09:16;3.33;;;2.22;;
17175;SDS011;8703;48.996;9.594;2023-09-07T00:11:47;5.32;;;2.53;;
17175;SDS011;8703;48.996;9.594;2023-09-07T00:14:14;3.63;;;2.95;;
17175;SDS011;8703;48.996;9.594;2023-09-07T00:16:43;3.10;;;2.45;;
17175;SDS011;8703;48.996;9.594;2023-09-07T00:19:10;3.87;;;2.87;;
17175;SDS011;8703;48.996;9.594;2023-09-07T00:21:37;6.20;;;2.77;;
17175;SDS011;8703;48.996;9.594;2023-09-07T00:24:05;4.55;;;2.72;;
17175;SDS011;8703;48.996;9.594;2023-09-07T00:26:33;2.70;;;2.40;;
17175;SDS011;8703;48.996;9.594;2023-09-07T00:29:00;3.03;;;2.67;;
17175;SDS011;8703;48.996;9.594;2023-09-07T00:31:27;4.90;;;2.70;;
17175;SDS011;8703;48.996;9.594;2023-09-07T00:33:56;5.38;;;2.58;;
17175;SDS011;8703;48.996;9.594;2023-09-07T00:36:23;4.83;;;2.67;;
17175;SDS011;8703;48.996;9.594;2023-09-07T00:38:51;4.15;;;2.60;;
17175;SDS011;8703;48.996;9.594;2023-09-07T00:41:18;3.20;;;2.53;;
17175;SDS011;8703;48.996;9.594;2023-09-07T00:43:45;4.68;;;2.80;;
17175;SDS011;8703;48.996;9.594;2023-09-07T00:46:13;5.38;;;2.70;;
17175;SDS011;8703;48.996;9.594;2023-09-07T00:48:40;3.40;;;2.90;;
17175;SDS011;8703;48.996;9.594;2023-09-07T00:51:09;6.17;;;2.97;;
17175;SDS011;8703;48.996;9.594;2023-09-07T00:53:37;3.93;;;2.80;;
17175;SDS011;8703;48.996;9.594;2023-09-07T00:56:04;4.65;;;2.95;;
17175;SDS011;8703;48.996;9.594;2023-09-07T00:58:32;6.00;;;3.17;;
17175;SDS011;8703;48.996;9.594;2023-09-07T01:01:00;3.30;;;2.60;;
17175;SDS011;8703;48.996;9.594;2023-09-07T01:03:28;4.15;;;2.85;;
17175;SDS011;8703;48.996;9.594;2023-09-07T01:05:56;4.67;;;2.90;;
17175;SDS011;8703;48.996;9.594;2023-09-07T01:08:32;6.27;;;2.80;;
17175;SDS011;8703;48.996;9.594;2023-09-07T01:11:01;3.50;;;2.90;;
17175;SDS011;8703;48.996;9.594;2023-09-07T01:13:40;5.93;;;3.10;;
17175;SDS011;8703;48.996;9.594;2023-09-07T01:16:07;4.67;;;2.60;;
17175;SDS011;8703;48.996;9.594;2023-09-07T01:18:34;5.10;;;3.00;;
17175;SDS011;8703;48.996;9.594;2023-09-07T01:21:03;3.63;;;2.60;;
17175;SDS011;8703;48.996;9.594;2023-09-07T01:23:33;4.10;;;2.67;;
17175;SDS011;8703;48.996;9.594;2023-09-07T01:26:01;3.07;;;2.77;;
17175;SDS011;8703;48.996;9.594;2023-09-07T01:28:29;4.83;;;2.73;;
17175;SDS011;8703;48.996;9.594;2023-09-07T01:30:56;3.33;;;2.78;;
17175;SDS011;8703;48.996;9.594;2023-09-07T01:33:24;4.00;;;2.87;;
17175;SDS011;8703;48.996;9.594;2023-09-07T01:35:51;4.53;;;2.93;;
17175;SDS011;8703;48.996;9.594;2023-09-07T01:38:18;3.17;;;2.90;;
17175;SDS011;8703;48.996;9.594;2023-09-07T01:40:47;4.30;;;2.83;;
17175;SDS011;8703;48.996;9.594;2023-09-07T01:43:14;5.20;;;2.80;;
17175;SDS011;8703;48.996;9.594;2023-09-07T01:45:42;3.23;;;2.77;;
17175;SDS011;8703;48.996;9.594;2023-09-07T01:48:12;4.40;;;2.70;;
17175;SDS011;8703;48.996;9.594;2023-09-07T01:50:40;3.13;;;2.70;;
17175;SDS011;8703;48.996;9.594;2023-09-07T01:53:07;4.13;;;3.00;;
17175;SDS011;8703;48.996;9.594;2023-09-07T01:55:34;3.90;;;3.40;;
17175;SDS011;8703;48.996;9.594;2023-09-07T01:58:03;5.03;;;3.30;;
17175;SDS011;8703;48.996;9.594;2023-09-07T02:00:31;4.27;;;3.10;;
17175;SDS011;8703;48.996;9.594;2023-09-07T02:03:02;4.53;;;3.47;;
17175;SDS011;8703;48.996;9.594;2023-09-07T02:05:29;4.83;;;3.43;;
17175;SDS011;8703;48.996;9.594;2023-09-07T02:07:57;4.33;;;3.40;;
17175;SDS011;8703;48.996;9.594;2023-09-07T02:10:25;4.30;;;3.70;;
17175;SDS011;8703;48.996;9.594;2023-09-07T02:12:53;7.20;;;3.60;;
17175;SDS011;8703;48.996;9.594;2023-09-07T02:15:23;4.27;;;3.60;;
17175;SDS011;8703;48.996;9.594;2023-09-07T02:17:50;8.27;;;3.50;;
17175;SDS011;8703;48.996;9.594;2023-09-07T02:20:18;5.30;;;3.23;;
17175;SDS011;8703;48.996;9.594;2023-09-07T02:22:45;6.13;;;3.10;;
17175;SDS011;8703;48.996;9.594;2023-09-07T02:25:12;4.00;;;3.20;;
17175;SDS011;8703;48.996;9.594;2023-09-07T02:27:40;6.10;;;3.23;;
17175;SDS011;8703;48.996;9.594;2023-09-07T02:30:08;5.40;;;3.37;;
17175;SDS011;8703;48.996;9.594;2023-09-07T02:32:37;4.20;;;3.40;;
17175;SDS011;8703;48.996;9.594;2023-09-07T02:35:06;4.53;;;3.20;;
17175;SDS011;8703;48.996;9.594;2023-09-07T02:37:35;4.77;;;3.40;;
17175;SDS011;8703;48.996;9.594;2023-09-07T02:40:02;4.77;;;3.27;;
17175;SDS011;8703;48.996;9.594;2023-09-07T02:42:32;3.83;;;3.10;;
17175;SDS011;8703;48.996;9.594;2023-09-07T02:45:00;5.20;;;3.50;;
17175;SDS011;8703;48.996;9.594;2023-09-07T02:47:27;3.50;;;3.10;;
17175;SDS011;8703;48.996;9.594;2023-09-07T02:49:56;3.80;;;3.30;;
17175;SDS011;8703;48.996;9.594;2023-09-07T02:52:23;5.87;;;3.23;;
17175;SDS011;8703;48.996;9.594;2023-09-07T02:54:51;4.37;;;3.40;;
17175;SDS011;8703;48.996;9.594;2023-09-07T02:57:18;5.40;;;3.50;;
17175;SDS011;8703;48.996;9.594;2023-09-07T02:59:45;6.33;;;3.40;;
17175;SDS011;8703;48.996;9.594;2023-09-07T03:02:13;5.87;;;3.33;;
17175;SDS011;8703;48.996;9.594;2023-09-07T03:04:40;5.50;;;3.40;;
17175;SDS011;8703;48.996;9.594;2023-09-07T03:07:09;7.80;;;3.60;;
17175;SDS011;8703;48.996;9.594;2023-09-07T03:09:36;5.30;;;3.40;;
17175;SDS011;8703;48.996;9.594;2023-09-07T03:12:04;4.10;;;3.30;;
17175;SDS011;8703;48.996;9.594;2023-09-07T03:14:31;4.30;;;3.37;;
17175;SDS011;8703;48.996;9.594;2023-09-07T03:16:59;4.97;;;3.00;;
17175;SDS011;8703;48.996;9.594;2023-09-07T03:19:28;4.77;;;3.40;;
17175;SDS011;8703;48.996;9.594;2023-09-07T03:21:55;5.03;;;3.40;;
17175;SDS011;8703;48.996;9.594;2023-09-07T03:24:24;4.93;;;3.37;;
17175;SDS011;8703;48.996;9.594;2023-09-07T03:26:53;4.60;;;3.63;;
17175;SDS011;8703;48.996;9.594;2023-09-07T03:29:20;5.00;;;3.67;;
17175;SDS011;8703;48.996;9.594;2023-09-07T03:31:48;5.90;;;3.63;;
17175;SDS011;8703;48.996;9.594;2023-09-07T03:34:15;5.00;;;3.33;;
17175;SDS011;8703;48.996;9.594;2023-09-07T03:36:44;4.63;;;3.40;;
17175;SDS011;8703;48.996;9.594;2023-09-07T03:39:12;4.90;;;3.67;;
17175;SDS011;8703;48.996;9.594;2023-09-07T03:41:41;4.77;;;4.27;;
17175;SDS011;8703;48.996;9.594;2023-09-07T03:44:08;4.00;;;3.23;;
17175;SDS011;8703;48.996;9.594;2023-09-07T03:46:36;3.67;;;3.17;;
17175;SDS011;8703;48.996;9.594;2023-09-07T03:49:03;6.13;;;3.10;;
17175;SDS011;8703;48.996;9.594;2023-09-07T03:51:31;5.93;;;3.40;;
17175;SDS011;8703;48.996;9.594;2023-09-07T03:53:58;4.37;;;3.40;;
17175;SDS011;8703;48.996;9.594;2023-09-07T03:56:25;6.00;;;3.63;;
17175;SDS011;8703;48.996;9.594;2023-09-07T03:58:54;5.13;;;3.40;;
17175;SDS011;8703;48.996;9.594;2023-09-07T04:01:21;5.03;;;3.27;;
17175;SDS011;8703;48.996;9.594;2023-09-07T04:03:49;7.23;;;3.50;;
17175;SDS011;8703;48.996;9.594;2023-09-07T04:06:16;3.80;;;3.23;;
17175;SDS011;8703;48.996;9.594;2023-09-07T04:08:44;5.23;;;3.20;;
17175;SDS011;8703;48.996;9.594;2023-09-07T04:11:11;4.57;;;3.33;;
17175;SDS011;8703;48.996;9.594;2023-09-07T04:13:39;4.40;;;3.70;;
17175;SDS011;8703;48.996;9.594;2023-09-07T04:16:08;4.70;;;3.67;;
17175;SDS011;8703;48.996;9.594;2023-09-07T04:18:35;4.87;;;3.93;;
17175;SDS011;8703;48.996;9.594;2023-09-07T04:21:06;4.60;;;3.60;;
17175;SDS011;8703;48.996;9.594;2023-09-07T04:23:33;4.40;;;3.43;;
17175;SDS011;8703;48.996;9.594;2023-09-07T04:26:05;4.20;;;3.40;;
17175;SDS011;8703;48.996;9.594;2023-09-07T04:28:33;4.83;;;3.87;;
17175;SDS011;8703;48.996;9.594;2023-09-07T04:31:01;4.77;;;4.10;;
17175;SDS011;8703;48.996;9.594;2023-09-07T04:33:30;4.60;;;3.73;;
17175;SDS011;8703;48.996;9.594;2023-09-07T04:36:05;5.10;;;3.50;;
17175;SDS011;8703;48.996;9.594;2023-09-07T04:38:34;4.13;;;3.53;;
17175;SDS011;8703;48.996;9.594;2023-09-07T04:41:07;6.27;;;3.80;;
17175;SDS011;8703;48.996;9.594;2023-09-07T04:43:35;4.33;;;3.40;;
17175;SDS011;8703;48.996;9.594;2023-09-07T04:46:05;4.23;;;3.40;;
17175;SDS011;8703;48.996;9.594;2023-09-07T04:48:34;4.00;;;3.50;;
17175;SDS011;8703;48.996;9.594;2023-09-07T04:51:02;8.17;;;3.63;;
17175;SDS011;8703;48.996;9.594;2023-09-07T04:53:32;4.57;;;4.00;;
17175;SDS011;8703;48.996;9.594;2023-09-07T04:56:01;4.07;;;3.30;;
17175;SDS011;8703;48.996;9.594;2023-09-07T04:58:29;6.77;;;3.73;;
17175;SDS011;8703;48.996;9.594;2023-09-07T05:01:01;5.67;;;3.60;;
17175;SDS011;8703;48.996;9.594;2023-09-07T05:03:28;4.83;;;3.80;;
17175;SDS011;8703;48.996;9.594;2023-09-07T05:05:57;10.43;;;4.10;;
17175;SDS011;8703;48.996;9.594;2023-09-07T05:08:25;6.20;;;4.30;;
17175;SDS011;8703;48.996;9.594;2023-09-07T05:10:54;10.73;;;4.30;;
17175;SDS011;8703;48.996;9.594;2023-09-07T05:13:22;8.67;;;4.20;;
17175;SDS011;8703;48.996;9.594;2023-09-07T05:15:50;6.27;;;3.87;;
17175;SDS011;8703;48.996;9.594;2023-09-07T05:18:18;4.97;;;3.70;;
17175;SDS011;8703;48.996;9.594;2023-09-07T05:20:46;5.43;;;3.80;;
17175;SDS011;8703;48.996;9.594;2023-09-07T05:23:17;5.47;;;3.83;;
17175;SDS011;8703;48.996;9.594;2023-09-07T05:25:45;7.97;;;4.07;;
17175;SDS011;8703;48.996;9.594;2023-09-07T05:28:13;5.63;;;4.33;;
17175;SDS011;8703;48.996;9.594;2023-09-07T05:30:41;4.97;;;4.20;;
17175;SDS011;8703;48.996;9.594;2023-09-07T05:33:08;6.30;;;3.63;;
17175;SDS011;8703;48.996;9.594;2023-09-07T05:35:36;4.83;;;4.10;;
17175;SDS011;8703;48.996;9.594;2023-09-07T05:38:04;4.23;;;3.57;;
17175;SDS011;8703;48.996;9.594;2023-09-07T05:40:34;5.00;;;3.80;;
17175;SDS011;8703;48.996;9.594;2023-09-07T05:43:02;5.27;;;3.70;;
17175;SDS011;8703;48.996;9.594;2023-09-07T05:45:30;5.57;;;4.23;;
17175;SDS011;8703;48.996;9.594;2023-09-07T05:47:57;5.93;;;4.63;;
17175;SDS011;8703;48.996;9.594;2023-09-07T05:50:25;8.37;;;3.90;;
17175;SDS011;8703;48.996;9.594;2023-09-07T05:52:52;7.00;;;4.17;;
17175;SDS011;8703;48.996;9.594;2023-09-07T05:55:19;5.30;;;4.30;;
17175;SDS011;8703;48.996;9.594;2023-09-07T05:57:49;8.53;;;4.47;;
17175;SDS011;8703;48.996;9.594;2023-09-07T06:00:16;5.30;;;3.93;;
17175;SDS011;8703;48.996;9.594;2023-09-07T06:02:45;4.67;;;3.80;;
17175;SDS011;8703;48.996;9.594;2023-09-07T06:05:12;4.53;;;4.13;;
17175;SDS011;8703;48.996;9.594;2023-09-07T06:07:40;5.70;;;4.53;;
17175;SDS011;8703;48.996;9.594;2023-09-07T06:10:07;5.53;;;4.47;;
17175;SDS011;8703;48.996;9.594;2023-09-07T06:12:35;7.17;;;4.73;;
17175;SDS011;8703;48.996;9.594;2023-09-07T06:15:05;6.80;;;4.70;;
17175;SDS011;8703;48.996;9.594;2023-09-07T06:17:33;8.10;;;4.77;;
17175;SDS011;8703;48.996;9.594;2023-09-07T06:20:01;10.83;;;4.70;;
17175;SDS011;8703;48.996;9.594;2023-09-07T06:22:30;11.80;;;5.47;;
17175;SDS011;8703;48.996;9.594;2023-09-07T06:24:57;9.37;;;5.37;;
17175;SDS011;8703;48.996;9.594;2023-09-07T06:27:24;12.97;;;6.23;;
17175;SDS011;8703;48.996;9.594;2023-09-07T06:29:52;9.77;;;5.60;;
17175;SDS011;8703;48.996;9.594;2023-09-07T06:32:20;11.57;;;5.67;;
17175;SDS011;8703;48.996;9.594;2023-09-07T06:34:48;10.17;;;6.07;;
17175;SDS011;8703;48.996;9.594;2023-09-07T06:37:15;9.17;;;5.83;;
17175;SDS011;8703;48.996;9.594;2023-09-07T06:39:43;12.70;;;6.30;;
17175;SDS011;8703;48.996;9.594;2023-09-07T06:42:10;7.47;;;5.73;;
17175;SDS011;8703;48.996;9.594;2023-09-07T06:44:37;8.83;;;6.13;;
17175;SDS011;8703;48.996;9.594;2023-09-07T06:47:05;9.17;;;5.93;;
17175;SDS011;8703;48.996;9.594;2023-09-07T06:49:33;21.40;;;7.23;;
17175;SDS011;8703;48.996;9.594;2023-09-07T06:52:02;15.73;;;6.80;;
17175;SDS011;8703;48.996;9.594;2023-09-07T06:54:29;13.03;;;6.90;;
17175;SDS011;8703;48.996;9.594;2023-09-07T06:56:57;9.87;;;6.30;;
17175;SDS011;8703;48.996;9.594;2023-09-07T06:59:24;10.00;;;6.77;;
17175;SDS011;8703;48.996;9.594;2023-09-07T07:01:51;7.83;;;5.80;;
17175;SDS011;8703;48.996;9.594;2023-09-07T07:04:19;8.20;;;5.63;;
17175;SDS011;8703;48.996;9.594;2023-09-07T07:06:46;6.93;;;5.90;;
17175;SDS011;8703;48.996;9.594;2023-09-07T07:09:14;6.22;;;5.43;;
17175;SDS011;8703;48.996;9.594;2023-09-07T07:11:41;6.47;;;5.38;;
17175;SDS011;8703;48.996;9.594;2023-09-07T07:14:09;5.53;;;4.90;;
17175;SDS011;8703;48.996;9.594;2023-09-07T07:16:37;6.25;;;4.88;;
17175;SDS011;8703;48.996;9.594;2023-09-07T07:19:04;5.53;;;4.80;;
17175;SDS011;8703;48.996;9.594;2023-09-07T07:21:32;5.93;;;4.77;;
17175;SDS011;8703;48.996;9.594;2023-09-07T07:24:00;7.93;;;4.32;;
17175;SDS011;8703;48.996;9.594;2023-09-07T07:26:29;6.38;;;4.78;;
17175;SDS011;8703;48.996;9.594;2023-09-07T07:28:57;5.50;;;4.40;;
17175;SDS011;8703;48.996;9.594;2023-09-07T07:31:24;6.55;;;4.35;;
17175;SDS011;8703;48.996;9.594;2023-09-07T07:33:52;4.93;;;4.43;;
17175;SDS011;8703;48.996;9.594;2023-09-07T07:36:20;5.75;;;4.55;;
17175;SDS011;8703;48.996;9.594;2023-09-07T07:38:48;5.95;;;4.20;;
17175;SDS011;8703;48.996;9.594;2023-09-07T07:41:17;4.57;;;4.18;;
17175;SDS011;8703;48.996;9.594;2023-09-07T07:43:44;6.47;;;4.40;;
17175;SDS011;8703;48.996;9.594;2023-09-07T07:46:12;4.90;;;4.13;;
17175;SDS011;8703;48.996;9.594;2023-09-07T07:48:40;6.43;;;3.88;;
17175;SDS011;8703;48.996;9.594;2023-09-07T07:51:08;4.10;;;3.70;;
17175;SDS011;8703;48.996;9.594;2023-09-07T07:53:35;4.85;;;4.15;;
17175;SDS011;8703;48.996;9.594;2023-09-07T07:56:02;6.07;;;4.30;;
17175;SDS011;8703;48.996;9.594;2023-09-07T07:58:31;6.20;;;4.10;;
17175;SDS011;8703;48.996;9.594;2023-09-07T08:00:58;4.97;;;3.95;;
17175;SDS011;8703;48.996;9.594;2023-09-07T08:03:26;4.85;;;3.75;;
17175;SDS011;8703;48.996;9.594;2023-09-07T08:05:54;5.35;;;4.03;;
17175;SDS011;8703;48.996;9.594;2023-09-07T08:08:22;6.72;;;3.88;;
17175;SDS011;8703;48.996;9.594;2023-09-07T08:10:49;5.30;;;3.63;;
17175;SDS011;8703;48.996;9.594;2023-09-07T08:13:17;4.13;;;3.72;;
17175;SDS011;8703;48.996;9.594;2023-09-07T08:15:46;4.63;;;4.00;;
17175;SDS011;8703;48.996;9.594;2023-09-07T08:18:14;5.13;;;3.90;;
17175;SDS011;8703;48.996;9.594;2023-09-07T08:20:41;5.63;;;3.90;;
17175;SDS011;8703;48.996;9.594;2023-09-07T08:23:09;7.22;;;4.00;;
17175;SDS011;8703;48.996;9.594;2023-09-07T08:25:36;5.90;;;4.18;;
17175;SDS011;8703;48.996;9.594;2023-09-07T08:28:09;4.88;;;3.63;;
17175;SDS011;8703;48.996;9.594;2023-09-07T08:30:37;4.20;;;3.80;;
17175;SDS011;8703;48.996;9.594;2023-09-07T08:33:06;4.95;;;3.60;;
17175;SDS011;8703;48.996;9.594;2023-09-07T08:35:33;4.03;;;3.65;;
17175;SDS011;8703;48.996;9.594;2023-09-07T08:38:02;4.13;;;3.72;;
17175;SDS011;8703;48.996;9.594;2023-09-07T08:40:33;4.60;;;3.60;;
17175;SDS011;8703;48.996;9.594;2023-09-07T08:43:02;4.28;;;3.88;;
17175;SDS011;8703;48.996;9.594;2023-09-07T08:45:31;4.70;;;3.45;;
17175;SDS011;8703;48.996;9.594;2023-09-07T08:48:01;4.07;;;3.67;;
17175;SDS011;8703;48.996;9.594;2023-09-07T08:50:31;4.05;;;3.55;;
17175;SDS011;8703;48.996;9.594;2023-09-07T08:52:58;4.57;;;3.78;;
17175;SDS011;8703;48.996;9.594;2023-09-07T08:55:28;4.28;;;3.80;;
17175;SDS011;8703;48.996;9.594;2023-09-07T08:57:56;4.75;;;3.83;;
17175;SDS011;8703;48.996;9.594;2023-09-07T09:00:23;4.13;;;3.53;;
17175;SDS011;8703;48.996;9.594;2023-09-07T09:02:51;4.75;;;3.95;;
17175;SDS011;8703;48.996;9.594;2023-09-07T09:05:19;4.95;;;3.58;;
17175;SDS011;8703;48.996;9.594;2023-09-07T09:07:48;6.32;;;3.70;;
17175;SDS011;8703;48.996;9.594;2023-09-07T09:10:17;5.72;;;3.80;;
17175;SDS011;8703;48.996;9.594;2023-09-07T09:12:45;4.85;;;3.90;;
17175;SDS011;8703;48.996;9.594;2023-09-07T09:15:12;3.55;;;3.25;;
17175;SDS011;8703;48.996;9.594;2023-09-07T09:17:39;4.85;;;3.25;;
17175;SDS011;8703;48.996;9.594;2023-09-07T09:20:19;4.05;;;3.20;;
17175;SDS011;8703;48.996;9.594;2023-09-07T09:22:49;4.53;;;3.58;;
17175;SDS011;8703;48.996;9.594;2023-09-07T09:25:17;5.32;;;3.50;;
17175;SDS011;8703;48.996;9.594;2023-09-07T09:27:45;4.60;;;3.75;;
17175;SDS011;8703;48.996;9.594;2023-09-07T09:30:13;4.68;;;3.25;;
17175;SDS011;8703;48.996;9.594;2023-09-07T09:32:41;5.15;;;3.70;;
17175;SDS011;8703;48.996;9.594;2023-09-07T09:35:09;3.53;;;3.22;;
17175;SDS011;8703;48.996;9.594;2023-09-07T09:37:43;3.30;;;3.00;;
17175;SDS011;8703;48.996;9.594;2023-09-07T09:40:13;3.97;;;3.00;;
17175;SDS011;8703;48.996;9.594;2023-09-07T09:42:42;5.00;;;3.30;;
17175;SDS011;8703;48.996;9.594;2023-09-07T09:45:10;4.50;;;3.25;;
17175;SDS011;8703;48.996;9.594;2023-09-07T09:47:38;4.50;;;3.80;;
17175;SDS011;8703;48.996;9.594;2023-09-07T09:50:06;4.00;;;3.60;;
17175;SDS011;8703;48.996;9.594;2023-09-07T09:52:35;3.70;;;3.40;;
17175;SDS011;8703;48.996;9.594;2023-09-07T09:55:06;4.68;;;3.63;;
17175;SDS011;8703;48.996;9.594;2023-09-07T09:57:39;6.72;;;3.50;;
17175;SDS011;8703;48.996;9.594;2023-09-07T10:00:07;5.28;;;3.45;;
17175;SDS011;8703;48.996;9.594;2023-09-07T10:02:48;4.88;;;3.67;;
17175;SDS011;8703;48.996;9.594;2023-09-07T10:05:17;3.75;;;3.38;;
17175;SDS011;8703;48.996;9.594;2023-09-07T10:07:47;4.07;;;2.90;;
17175;SDS011;8703;48.996;9.594;2023-09-07T10:10:17;3.47;;;2.80;;
17175;SDS011;8703;48.996;9.594;2023-09-07T10:12:51;4.00;;;3.60;;
17175;SDS011;8703;48.996;9.594;2023-09-07T10:15:23;3.40;;;3.10;;
17175;SDS011;8703;48.996;9.594;2023-09-07T10:18:02;3.38;;;3.08;;
17175;SDS011;8703;48.996;9.594;2023-09-07T10:20:34;4.70;;;3.20;;
17175;SDS011;8703;48.996;9.594;2023-09-07T10:23:15;3.50;;;3.20;;
17175;SDS011;8703;48.996;9.594;2023-09-07T10:25:42;3.97;;;3.05;;
17175;SDS011;8703;48.996;9.594;2023-09-07T10:28:22;3.30;;;3.00;;
17175;SDS011;8703;48.996;9.594;2023-09-07T10:30:57;3.58;;;3.25;;
17175;SDS011;8703;48.996;9.594;2023-09-07T10:33:26;4.85;;;3.67;;
17175;SDS011;8703;48.996;9.594;2023-09-07T10:35:53;4.47;;;3.65;;
17175;SDS011;8703;48.996;9.594;2023-09-07T10:38:21;3.72;;;3.10;;
17175;SDS011;8703;48.996;9.594;2023-09-07T10:40:54;4.18;;;3.40;;
17175;SDS011;8703;48.996;9.594;2023-09-07T10:43:24;3.40;;;3.10;;
17175;SDS011;8703;48.996;9.594;2023-09-07T10:45:52;3.42;;;3.13;;
17175;SDS011;8703;48.996;9.594;2023-09-07T10:48:21;3.60;;;3.30;;
17175;SDS011;8703;48.996;9.594;2023-09-07T10:50:48;3.50;;;3.20;;
17175;SDS011;8703;48.996;9.594;2023-09-07T10:53:23;5.43;;;3.38;;
17175;SDS011;8703;48.996;9.594;2023-09-07T10:55:53;4.18;;;3.47;;
17175;SDS011;8703;48.996;9.594;2023-09-07T10:58:27;3.55;;;3.10;;
17175;SDS011;8703;48.996;9.594;2023-09-07T11:00:56;4.45;;;3.03;;
17175;SDS011;8703;48.996;9.594;2023-09-07T11:03:24;4.35;;;3.30;;
17175;SDS011;8703;48.996;9.594;2023-09-07T11:05:53;5.43;;;3.38;;
17175;SDS011;8703;48.996;9.594;2023-09-07T11:08:21;3.40;;;2.90;;
17175;SDS011;8703;48.996;9.594;2023-09-07T11:10:49;3.60;;;3.28;;
17175;SDS011;8703;48.996;9.594;2023-09-07T11:13:17;4.13;;;3.10;;
17175;SDS011;8703;48.996;9.594;2023-09-07T11:15:46;4.60;;;3.35;;
17175;SDS011;8703;48.996;9.594;2023-09-07T11:18:18;4.32;;;3.28;;
17175;SDS011;8703;48.996;9.594;2023-09-07T11:20:46;3.92;;;3.30;;
17175;SDS011;8703;48.996;9.594;2023-09-07T11:23:15;5.20;;;3.03;;
17175;SDS011;8703;48.996;9.594;2023-09-07T11:25:42;4.53;;;3.65;;
17175;SDS011;8703;48.996;9.594;2023-09-07T11:28:10;4.22;;;3.33;;
17175;SDS011;8703;48.996;9.594;2023-09-07T11:30:47;5.13;;;3.00;;
17175;SDS011;8703;48.996;9.594;2023-09-07T11:33:17;3.38;;;3.08;;
17175;SDS011;8703;48.996;9.594;2023-09-07T11:35:44;5.10;;;3.35;;
17175;SDS011;8703;48.996;9.594;2023-09-07T11:38:12;3.72;;;3.10;;
17175;SDS011;8703;48.996;9.594;2023-09-07T11:40:40;3.75;;;2.92;;
17175;SDS011;8703;48.996;9.594;2023-09-07T11:43:09;4.25;;;3.30;;
17175;SDS011;8703;48.996;9.594;2023-09-07T11:45:37;3.85;;;2.80;;
17175;SDS011;8703;48.996;9.594;2023-09-07T11:48:06;3.65;;;3.15;;
17175;SDS011;8703;48.996;9.594;2023-09-07T11:50:35;4.63;;;3.20;;
17175;SDS011;8703;48.996;9.594;2023-09-07T11:53:03;6.50;;;3.30;;
17175;SDS011;8703;48.996;9.594;2023-09-07T11:55:30;3.60;;;3.30;;
17175;SDS011;8703;48.996;9.594;2023-09-07T11:57:58;3.80;;;3.40;;
17175;SDS011;8703;48.996;9.594;2023-09-07T12:00:26;3.63;;;3.33;;
17175;SDS011;8703;48.996;9.594;2023-09-07T12:02:54;4.25;;;3.40;;
17175;SDS011;8703;48.996;9.594;2023-09-07T12:05:23;4.97;;;3.08;;
17175;SDS011;8703;48.996;9.594;2023-09-07T12:07:50;5.63;;;3.00;;
17175;SDS011;8703;48.996;9.594;2023-09-07T12:10:18;3.50;;;3.20;;
17175;SDS011;8703;48.996;9.594;2023-09-07T12:12:45;5.57;;;3.03;;
17175;SDS011;8703;48.996;9.594;2023-09-07T12:15:12;4.38;;;3.15;;
17175;SDS011;8703;48.996;9.594;2023-09-07T12:17:40;3.28;;;2.90;;
17175;SDS011;8703;48.996;9.594;2023-09-07T12:20:08;4.20;;;3.30;;
17175;SDS011;8703;48.996;9.594;2023-09-07T12:22:39;5.50;;;3.20;;
17175;SDS011;8703;48.996;9.594;2023-09-07T12:25:07;3.50;;;3.20;;
17175;SDS011;8703;48.996;9.594;2023-09-07T12:27:35;4.00;;;3.47;;
17175;SDS011;8703;48.996;9.594;2023-09-07T12:30:05;3.30;;;3.00;;
17175;SDS011;8703;48.996;9.594;2023-09-07T12:32:37;6.47;;;3.00;;
17175;SDS011;8703;48.996;9.594;2023-09-07T12:35:05;3.28;;;2.90;;
17175;SDS011;8703;48.996;9.594;2023-09-07T12:37:33;3.20;;;2.90;;
17175;SDS011;8703;48.996;9.594;2023-09-07T12:40:02;3.78;;;2.92;;
17175;SDS011;8703;48.996;9.594;2023-09-07T12:42:36;3.53;;;3.00;;
17175;SDS011;8703;48.996;9.594;2023-09-07T12:45:07;3.25;;;2.80;;
17175;SDS011;8703;48.996;9.594;2023-09-07T12:47:35;3.72;;;2.90;;
17175;SDS011;8703;48.996;9.594;2023-09-07T12:50:03;3.40;;;2.97;;
17175;SDS011;8703;48.996;9.594;2023-09-07T12:52:32;3.72;;;2.70;;
17175;SDS011;8703;48.996;9.594;2023-09-07T12:55:00;4.15;;;3.28;;
17175;SDS011;8703;48.996;9.594;2023-09-07T12:57:29;3.53;;;3.08;;
17175;SDS011;8703;48.996;9.594;2023-09-07T12:59:57;3.67;;;2.95;;
17175;SDS011;8703;48.996;9.594;2023-09-07T13:02:24;4.43;;;2.90;;
17175;SDS011;8703;48.996;9.594;2023-09-07T13:04:53;3.25;;;2.90;;
17175;SDS011;8703;48.996;9.594;2023-09-07T13:07:21;3.67;;;3.00;;
17175;SDS011;8703;48.996;9.594;2023-09-07T13:09:48;4.55;;;2.85;;
17175;SDS011;8703;48.996;9.594;2023-09-07T13:12:17;4.53;;;2.80;;
17175;SDS011;8703;48.996;9.594;2023-09-07T13:14:45;5.30;;;2.97;;
17175;SDS011;8703;48.996;9.594;2023-09-07T13:17:13;4.35;;;2.88;;
17175;SDS011;8703;48.996;9.594;2023-09-07T13:19:40;4.47;;;2.80;;
17175;SDS011;8703;48.996;9.594;2023-09-07T13:22:09;3.53;;;2.78;;
17175;SDS011;8703;48.996;9.594;2023-09-07T13:24:36;3.10;;;2.85;;
17175;SDS011;8703;48.996;9.594;2023-09-07T13:27:03;3.00;;;2.72;;
17175;SDS011;8703;48.996;9.594;2023-09-07T13:29:32;3.20;;;2.90;;
17175;SDS011;8703;48.996;9.594;2023-09-07T13:31:59;3.28;;;2.97;;
17175;SDS011;8703;48.996;9.594;2023-09-07T13:34:27;3.08;;;2.88;;
17175;SDS011;8703;48.996;9.594;2023-09-07T13:36:55;4.10;;;2.80;;
17175;SDS011;8703;48.996;9.594;2023-09-07T13:39:22;3.22;;;2.70;;
17175;SDS011;8703;48.996;9.594;2023-09-07T13:41:50;4.55;;;2.60;;
17175;SDS011;8703;48.996;9.594;2023-09-07T13:44:16;3.97;;;2.90;;
17175;SDS011;8703;48.996;9.594;2023-09-07T13:46:45;4.25;;;2.90;;
17175;SDS011;8703;48.996;9.594;2023-09-07T13:49:13;3.13;;;2.78;;
17175;SDS011;8703;48.996;9.594;2023-09-07T13:51:40;3.42;;;2.58;;
17175;SDS011;8703;48.996;9.594;2023-09-07T13:54:08;2.92;;;2.70;;
17175;SDS011;8703;48.996;9.594;2023-09-07T13:56:36;3.22;;;2.95;;
17175;SDS011;8703;48.996;9.594;2023-09-07T13:59:03;2.90;;;2.60;;
17175;SDS011;8703;48.996;9.594;2023-09-07T14:01:31;3.47;;;3.00;;
17175;SDS011;8703;48.996;9.594;2023-09-07T14:03:59;3.00;;;2.50;;
17175;SDS011;8703;48.996;9.594;2023-09-07T14:06:27;3.03;;;2.72;;
17175;SDS011;8703;48.996;9.594;2023-09-07T14:08:54;3.10;;;2.80;;
17175;SDS011;8703;48.996;9.594;2023-09-07T14:11:22;3.15;;;2.85;;
17175;SDS011;8703;48.996;9.594;2023-09-07T14:13:49;3.22;;;2.92;;
17175;SDS011;8703;48.996;9.594;2023-09-07T14:16:17;3.22;;;2.88;;
17175;SDS011;8703;48.996;9.594;2023-09-07T14:18:44;3.30;;;3.00;;
17175;SDS011;8703;48.996;9.594;2023-09-07T14:21:14;3.20;;;2.88;;
17175;SDS011;8703;48.996;9.594;2023-09-07T14:23:42;5.05;;;3.05;;
17175;SDS011;8703;48.996;9.594;2023-09-07T14:26:09;4.07;;;3.10;;
17175;SDS011;8703;48.996;9.594;2023-09-07T14:28:37;4.22;;;2.95;;
17175;SDS011;8703;48.996;9.594;2023-09-07T14:31:04;5.68;;;3.10;;
17175;SDS011;8703;48.996;9.594;2023-09-07T14:33:32;4.10;;;2.97;;
17175;SDS011;8703;48.996;9.594;2023-09-07T14:36:03;3.55;;;2.75;;
17175;SDS011;8703;48.996;9.594;2023-09-07T14:38:32;3.30;;;3.00;;
17175;SDS011;8703;48.996;9.594;2023-09-07T14:41:05;4.85;;;3.05;;
17175;SDS011;8703;48.996;9.594;2023-09-07T14:43:33;3.83;;;3.05;;
17175;SDS011;8703;48.996;9.594;2023-09-07T14:46:00;3.38;;;3.08;;
17175;SDS011;8703;48.996;9.594;2023-09-07T14:48:28;3.05;;;2.78;;
17175;SDS011;8703;48.996;9.594;2023-09-07T14:50:55;4.28;;;2.58;;
17175;SDS011;8703;48.996;9.594;2023-09-07T14:53:23;3.25;;;2.75;;
17175;SDS011;8703;48.996;9.594;2023-09-07T14:55:52;3.00;;;2.67;;
17175;SDS011;8703;48.996;9.594;2023-09-07T14:58:21;24.25;;;6.57;;
17175;SDS011;8703;48.996;9.594;2023-09-07T15:00:48;4.60;;;3.20;;
17175;SDS011;8703;48.996;9.594;2023-09-07T15:03:16;3.75;;;3.10;;
17175;SDS011;8703;48.996;9.594;2023-09-07T15:05:43;5.07;;;3.38;;
17175;SDS011;8703;48.996;9.594;2023-09-07T15:08:10;4.90;;;3.05;;